createdAt,value
2023-03-17T00:27:16.630Z,7.3
2023-03-17T00:56:29.791Z,7.1
2023-03-17T01:25:52.754Z,7.1
2023-03-17T01:55:09.960Z,6.9
2023-03-17T02:24:29.610Z,6.4
2023-03-17T02:53:45.751Z,6
2023-03-17T03:23:01.613Z,5.8
2023-03-17T03:52:22.240Z,6.1
2023-03-17T04:21:44.580Z,6.2
2023-03-17T04:51:09.244Z,6.1
2023-03-17T05:19:57.919Z,6.1
2023-03-17T05:49:16.654Z,5.8
2023-03-17T06:18:38.671Z,5.4
2023-03-17T06:47:57.793Z,5.4
2023-03-17T07:17:14.818Z,5.8
2023-03-17T07:46:35.713Z,6.5
2023-03-17T08:15:50.816Z,7.7
2023-03-17T08:45:14.566Z,9.4
2023-03-17T09:14:46.860Z,11.1
2023-03-17T09:43:33.595Z,12.4
2023-03-17T10:12:58.981Z,13.8
2023-03-17T10:42:23.244Z,14.3
2023-03-17T11:11:48.296Z,15
2023-03-17T11:41:15.258Z,19.3
2023-03-17T12:10:45.209Z,18.7
2023-03-17T12:40:12.577Z,18.4
2023-03-17T13:09:37.297Z,17.6
2023-03-17T13:39:19.129Z,18.2
2023-03-17T14:07:53.748Z,18.2
2023-03-17T14:37:06.496Z,17.8
2023-03-17T15:06:23.599Z,17.4
2023-03-17T15:35:48.021Z,17.1
2023-03-17T16:05:05.062Z,16.8
2023-03-17T16:34:22.152Z,16.4
2023-03-17T17:03:40.173Z,16
2023-03-17T17:33:01.334Z,15.5
2023-03-17T18:02:20.204Z,15.1
2023-03-17T18:31:32.376Z,14.7
2023-03-17T19:00:47.761Z,14.1
2023-03-17T19:30:00.248Z,13.4
2023-03-17T19:59:12.306Z,12.8
2023-03-17T20:28:30.454Z,12.1
2023-03-17T20:57:38.042Z,11.6
2023-03-17T21:26:55.342Z,11.2
2023-03-17T21:56:15.154Z,11
2023-03-17T22:25:36.030Z,10.5
2023-03-17T22:54:56.238Z,10.2
2023-03-17T23:24:16.155Z,10.1
2023-03-17T23:53:39.769Z,11.1
